createdAt,value
2018-05-15T00:02:03.374Z,18.30
2018-05-15T00:05:05.348Z,18.30
2018-05-15T00:08:06.580Z,18.30
2018-05-15T00:11:07.808Z,18.20
2018-05-15T00:14:09.044Z,18.00
2018-05-15T00:17:11.009Z,18.00
2018-05-15T00:20:12.254Z,18.00
2018-05-15T00:23:13.479Z,17.90
2018-05-15T00:26:14.723Z,17.80
2018-05-15T00:29:16.690Z,17.80
2018-05-15T00:32:18.656Z,17.70
2018-05-15T00:35:19.901Z,17.70
2018-05-15T00:38:21.136Z,17.70
2018-05-15T00:41:22.379Z,17.80
2018-05-15T00:44:23.619Z,17.80
2018-05-15T00:47:25.587Z,17.80
2018-05-15T00:50:26.876Z,17.80
2018-05-15T00:53:28.111Z,17.60
2018-05-15T00:56:29.334Z,17.60
2018-05-15T00:59:30.579Z,17.50
2018-05-15T01:02:31.860Z,17.60
2018-05-15T01:05:33.147Z,17.70
2018-05-15T01:08:34.426Z,17.70
2018-05-15T01:11:35.708Z,17.60
2018-05-15T01:14:37.704Z,17.40
2018-05-15T01:17:38.930Z,17.40
2018-05-15T01:20:40.183Z,17.50
2018-05-15T01:23:41.459Z,17.50
2018-05-15T01:26:42.732Z,17.40
2018-05-15T01:29:43.943Z,17.30
2018-05-15T01:32:45.222Z,17.20
2018-05-15T01:35:46.476Z,17.20
2018-05-15T01:38:47.751Z,17.20
2018-05-15T01:41:48.972Z,17.10
2018-05-15T01:44:50.257Z,17.30
2018-05-15T01:47:51.506Z,17.40
2018-05-15T01:50:52.773Z,17.20
2018-05-15T01:53:54.007Z,17.20
2018-05-15T01:56:56.027Z,17.20
2018-05-15T01:59:57.297Z,17.20
2018-05-15T02:02:58.588Z,17.10
2018-05-15T02:05:59.811Z,17.00
2018-05-15T02:09:01.062Z,17.00
2018-05-15T02:12:02.344Z,17.00
2018-05-15T02:15:03.634Z,16.90
2018-05-15T02:18:04.859Z,16.90
2018-05-15T02:21:06.121Z,16.80
2018-05-15T02:24:07.373Z,16.80
2018-05-15T02:27:08.633Z,16.90
2018-05-15T02:30:10.622Z,16.80
2018-05-15T02:33:11.870Z,16.70
2018-05-15T02:36:13.877Z,16.70
2018-05-15T02:39:15.143Z,16.70
2018-05-15T02:42:16.425Z,16.70
2018-05-15T02:45:17.651Z,16.70
2018-05-15T02:48:18.905Z,16.60
2018-05-15T02:51:20.902Z,16.30
2018-05-15T02:54:22.177Z,16.30
2018-05-15T02:57:23.453Z,16.30
2018-05-15T03:00:25.018Z,16.30
2018-05-15T03:03:26.338Z,16.30
2018-05-15T03:06:28.345Z,16.60
2018-05-15T03:09:29.633Z,16.60
2018-05-15T03:12:30.889Z,16.40
2018-05-15T03:15:32.119Z,16.40
2018-05-15T03:18:34.100Z,16.40
2018-05-15T03:21:36.098Z,16.40
2018-05-15T03:24:37.347Z,16.40
2018-05-15T03:27:38.614Z,16.30
2018-05-15T03:30:39.863Z,16.10
2018-05-15T03:33:41.864Z,15.90
2018-05-15T03:36:43.121Z,15.90
2018-05-15T03:39:44.412Z,15.80
2018-05-15T03:42:45.690Z,15.70
2018-05-15T03:45:46.956Z,15.60
2018-05-15T03:48:48.208Z,15.80
2018-05-15T03:51:49.477Z,15.80
2018-05-15T03:54:50.751Z,15.80
2018-05-15T03:57:52.029Z,15.90
2018-05-15T04:01:11.758Z,15.90
2018-05-15T04:04:32.134Z,16.00
2018-05-15T04:07:52.630Z,16.00
2018-05-15T04:10:53.916Z,15.90
2018-05-15T04:13:55.141Z,15.90
2018-05-15T04:16:56.375Z,15.90
2018-05-15T04:19:58.375Z,15.50
2018-05-15T04:22:59.660Z,15.60
2018-05-15T04:26:00.924Z,15.60
2018-05-15T04:29:02.206Z,15.60
2018-05-15T04:32:03.463Z,15.70
2018-05-15T04:35:04.730Z,15.60
2018-05-15T04:38:06.004Z,15.70
2018-05-15T04:41:07.271Z,15.70
2018-05-15T04:44:08.519Z,15.80
2018-05-15T04:47:09.755Z,15.90
2018-05-15T04:50:10.982Z,15.70
2018-05-15T04:53:12.992Z,15.70
2018-05-15T04:56:14.250Z,15.70
2018-05-15T04:59:15.486Z,15.80
2018-05-15T05:02:17.478Z,15.70
2018-05-15T05:05:18.747Z,15.60
2018-05-15T05:08:20.010Z,15.90
2018-05-15T05:11:21.269Z,15.70
2018-05-15T05:14:22.490Z,15.60
2018-05-15T05:17:23.847Z,15.60
2018-05-15T05:20:25.777Z,15.80
2018-05-15T05:23:27.037Z,15.80
2018-05-15T05:26:29.046Z,16.00
2018-05-15T05:29:30.313Z,15.90
2018-05-15T05:32:31.546Z,16.10
2018-05-15T05:35:32.797Z,16.10
2018-05-15T05:38:34.777Z,16.20
2018-05-15T05:41:36.793Z,16.20
2018-05-15T05:44:38.038Z,16.20
2018-05-15T05:47:39.297Z,16.30
2018-05-15T05:50:40.543Z,16.40
2018-05-15T05:53:42.537Z,16.40
2018-05-15T05:56:43.805Z,16.40
2018-05-15T05:59:45.058Z,16.40
2018-05-15T06:02:47.051Z,16.50
2018-05-15T06:05:48.309Z,16.50
2018-05-15T06:08:49.551Z,16.50
2018-05-15T06:11:50.811Z,16.60
2018-05-15T06:14:52.070Z,16.70
2018-05-15T06:17:53.335Z,16.70
2018-05-15T06:20:54.656Z,16.70
2018-05-15T06:23:56.634Z,16.80
2018-05-15T06:26:57.881Z,16.80
2018-05-15T06:29:59.134Z,16.90
2018-05-15T06:33:00.402Z,16.80
2018-05-15T06:36:01.682Z,16.80
2018-05-15T06:39:02.982Z,16.90
2018-05-15T06:42:04.273Z,16.90
2018-05-15T06:45:06.268Z,17.00
2018-05-15T06:48:07.523Z,17.00
2018-05-15T06:51:08.782Z,17.10
2018-05-15T06:54:10.800Z,17.20
2018-05-15T06:57:12.019Z,17.20
2018-05-15T07:00:14.035Z,17.20
2018-05-15T07:03:15.282Z,17.20
2018-05-15T07:06:16.532Z,17.50
2018-05-15T07:09:18.522Z,17.70
2018-05-15T07:12:19.803Z,17.70
2018-05-15T07:15:21.039Z,17.80
2018-05-15T07:18:23.053Z,18.10
2018-05-15T07:21:24.299Z,18.10
2018-05-15T07:24:25.546Z,18.30
2018-05-15T07:27:27.659Z,18.60
2018-05-15T07:30:28.819Z,18.50
2018-05-15T07:33:30.109Z,18.60
2018-05-15T07:36:31.339Z,18.80
2018-05-15T07:39:32.607Z,18.80
2018-05-15T07:42:33.856Z,19.00
2018-05-15T07:45:35.142Z,19.00
2018-05-15T07:48:36.493Z,19.00
2018-05-15T07:51:37.674Z,19.00
2018-05-15T07:54:38.922Z,19.10
2018-05-15T07:57:40.182Z,19.20
2018-05-15T08:00:41.430Z,19.30
2018-05-15T08:03:43.420Z,19.40
2018-05-15T08:06:44.671Z,19.40
2018-05-15T08:09:46.704Z,19.50
2018-05-15T08:12:48.678Z,19.50
2018-05-15T08:15:49.931Z,19.50
2018-05-15T08:18:51.157Z,19.50
2018-05-15T08:21:53.179Z,19.50
2018-05-15T08:24:54.443Z,19.50
2018-05-15T08:27:55.716Z,19.40
2018-05-15T08:30:57.051Z,19.50
2018-05-15T08:33:58.198Z,19.50
2018-05-15T08:36:59.463Z,19.60
2018-05-15T08:40:00.718Z,19.50
2018-05-15T08:43:02.740Z,19.50
2018-05-15T08:46:04.032Z,19.40
2018-05-15T08:49:05.298Z,19.40
2018-05-15T08:52:06.553Z,19.50
2018-05-15T08:55:07.810Z,19.40
2018-05-15T08:58:09.073Z,19.50
2018-05-15T09:01:10.318Z,19.50
2018-05-15T09:04:11.562Z,19.50
2018-05-15T09:07:12.812Z,19.60
2018-05-15T09:10:14.075Z,19.70
2018-05-15T09:13:15.325Z,19.70
2018-05-15T09:16:17.360Z,19.80
2018-05-15T09:19:18.615Z,19.80
2018-05-15T09:22:19.858Z,19.90
2018-05-15T09:25:21.091Z,19.90
2018-05-15T09:28:23.060Z,20.00
2018-05-15T09:31:24.299Z,20.00
2018-05-15T09:34:25.590Z,20.20
2018-05-15T09:37:26.861Z,20.20
2018-05-15T09:40:28.899Z,20.30
2018-05-15T09:47:07.134Z,20.40
2018-05-15T09:50:08.401Z,20.50
2018-05-15T09:53:09.640Z,20.70
2018-05-15T09:56:11.602Z,20.70
2018-05-15T09:59:12.861Z,20.70
2018-05-15T10:02:14.114Z,20.80
2018-05-15T10:05:15.390Z,20.80
2018-05-15T10:08:16.639Z,21.00
2018-05-15T10:11:17.901Z,21.10
2018-05-15T10:14:19.230Z,21.20
2018-05-15T10:17:20.433Z,21.30
2018-05-15T10:20:21.675Z,21.40
2018-05-15T10:23:22.944Z,21.60
2018-05-15T10:26:24.230Z,21.70
2018-05-15T10:29:25.513Z,21.70
2018-05-15T10:32:27.489Z,21.80
2018-05-15T10:35:29.514Z,22.00
2018-05-15T10:38:30.773Z,22.00
2018-05-15T10:41:32.023Z,22.10
2018-05-15T10:44:33.250Z,22.30
2018-05-15T10:47:34.529Z,22.30
2018-05-15T10:50:36.507Z,22.60
2018-05-15T10:53:38.510Z,22.60
2018-05-15T10:56:39.755Z,22.60
2018-05-15T10:59:41.851Z,22.80
2018-05-15T11:02:43.038Z,22.80
2018-05-15T11:05:44.305Z,22.90
2018-05-15T11:08:45.551Z,22.90
2018-05-15T11:11:46.836Z,23.00
2018-05-15T11:14:48.090Z,23.00
2018-05-15T11:17:49.373Z,23.00
2018-05-15T11:21:09.244Z,23.10
2018-05-15T11:27:53.037Z,23.30
2018-05-15T11:30:54.279Z,23.30
2018-05-15T11:33:56.281Z,23.50
2018-05-15T11:36:57.521Z,23.50
2018-05-15T11:39:59.507Z,23.70
2018-05-15T11:43:00.752Z,23.60
2018-05-15T11:46:02.751Z,23.80
2018-05-15T11:49:05.028Z,23.80
2018-05-15T11:52:06.076Z,23.80
2018-05-15T11:55:06.541Z,23.80
2018-05-15T11:58:07.915Z,23.90
2018-05-15T12:01:09.052Z,24.10
2018-05-15T12:04:11.074Z,24.10
2018-05-15T12:07:13.024Z,24.10
2018-05-15T12:10:14.994Z,24.20
2018-05-15T12:13:17.000Z,24.30
2018-05-15T12:16:18.274Z,24.30
2018-05-15T12:19:19.563Z,24.50
2018-05-15T12:22:20.790Z,24.60
2018-05-15T12:25:22.050Z,24.60
2018-05-15T12:28:23.309Z,24.70
2018-05-15T12:31:24.593Z,24.70
2018-05-15T12:34:25.845Z,24.70
2018-05-15T12:37:27.117Z,24.70
2018-05-15T12:40:28.388Z,24.80
2018-05-15T12:43:29.675Z,24.90
2018-05-15T12:46:30.929Z,25.00
2018-05-15T12:49:32.187Z,25.00
2018-05-15T12:52:33.433Z,25.00
2018-05-15T12:55:34.718Z,25.00
2018-05-15T12:58:35.943Z,25.10
2018-05-15T13:01:37.283Z,25.10
2018-05-15T13:04:39.159Z,25.10
2018-05-15T13:07:41.170Z,24.70
2018-05-15T13:10:42.407Z,24.70
2018-05-15T13:13:44.393Z,25.00
2018-05-15T13:16:46.409Z,25.10
2018-05-15T13:19:47.635Z,25.00
2018-05-15T13:22:49.615Z,25.30
2018-05-15T13:25:51.615Z,25.50
2018-05-15T13:28:52.866Z,25.50
2018-05-15T13:31:54.130Z,25.70
2018-05-15T13:34:55.395Z,25.80
2018-05-15T13:37:56.650Z,25.90
2018-05-15T13:40:58.686Z,25.80
2018-05-15T13:43:59.960Z,25.80
2018-05-15T13:47:01.226Z,25.90
2018-05-15T13:50:02.518Z,26.10
2018-05-15T13:53:04.553Z,26.10
2018-05-15T13:56:05.806Z,26.10
2018-05-15T13:59:07.054Z,26.20
2018-05-15T14:02:08.340Z,26.30
2018-05-15T14:05:09.625Z,25.60
2018-05-15T14:08:10.882Z,24.90
2018-05-15T14:11:12.150Z,25.00
2018-05-15T14:14:13.371Z,25.20
2018-05-15T14:17:14.646Z,25.70
2018-05-15T14:20:15.908Z,25.90
2018-05-15T14:23:17.162Z,26.00
2018-05-15T14:26:18.397Z,25.60
2018-05-15T14:29:20.491Z,25.80
2018-05-15T14:32:21.663Z,25.80
2018-05-15T14:35:22.968Z,25.80
2018-05-15T14:38:24.215Z,25.90
2018-05-15T14:41:44.140Z,26.00
2018-05-15T14:44:45.386Z,25.40
2018-05-15T14:47:46.747Z,24.80
2018-05-15T14:54:45.647Z,25.40
2018-05-15T14:57:47.633Z,25.80
2018-05-15T15:00:49.616Z,26.20
2018-05-15T15:03:51.617Z,26.40
2018-05-15T15:06:52.876Z,26.40
2018-05-15T15:09:54.109Z,26.20
2018-05-15T15:12:56.129Z,25.70
2018-05-15T15:15:57.370Z,25.60
2018-05-15T15:18:59.371Z,25.80
2018-05-15T15:22:00.618Z,25.70
2018-05-15T15:25:01.877Z,25.80
2018-05-15T15:28:03.157Z,25.60
2018-05-15T15:31:04.423Z,25.70
2018-05-15T15:34:05.682Z,25.70
2018-05-15T15:37:06.942Z,25.90
2018-05-15T15:40:08.172Z,26.10
2018-05-15T15:43:09.443Z,25.90
2018-05-15T15:46:11.445Z,25.20
2018-05-15T15:49:12.732Z,25.20
2018-05-15T15:52:13.985Z,25.10
2018-05-15T15:55:15.238Z,25.00
2018-05-15T15:58:16.459Z,24.80
2018-05-15T16:01:17.700Z,24.50
2018-05-15T16:04:18.972Z,24.30
2018-05-15T16:07:20.264Z,24.00
2018-05-15T16:10:22.262Z,23.80
2018-05-15T16:13:23.503Z,23.70
2018-05-15T16:16:25.521Z,23.70
2018-05-15T16:19:26.773Z,23.70
2018-05-15T16:22:28.016Z,23.70
2018-05-15T16:25:30.005Z,23.70
2018-05-15T16:28:32.071Z,23.70
2018-05-15T16:31:33.277Z,23.60
2018-05-15T16:34:34.532Z,23.60
2018-05-15T16:37:35.834Z,23.60
2018-05-15T16:40:37.090Z,23.60
2018-05-15T16:43:38.341Z,23.60
2018-05-15T16:46:39.589Z,23.50
2018-05-15T16:49:40.858Z,23.50
2018-05-15T16:52:42.106Z,23.60
2018-05-15T16:55:43.384Z,23.60
2018-05-15T16:58:44.717Z,23.60
2018-05-15T17:01:45.946Z,23.40
2018-05-15T17:04:47.203Z,23.30
2018-05-15T17:07:48.518Z,23.30
2018-05-15T17:10:49.769Z,23.30
2018-05-15T17:13:51.012Z,23.30
2018-05-15T17:16:52.247Z,23.40
2018-05-15T17:19:53.500Z,23.40
2018-05-15T17:22:54.767Z,23.30
2018-05-15T17:25:56.046Z,23.10
2018-05-15T17:28:57.295Z,23.20
2018-05-15T17:31:58.554Z,23.20
2018-05-15T17:34:59.814Z,23.00
2018-05-15T17:38:01.047Z,22.90
2018-05-15T17:41:02.276Z,22.90
2018-05-15T17:44:03.528Z,23.00
2018-05-15T17:47:04.779Z,23.00
2018-05-15T17:50:06.067Z,22.90
2018-05-15T17:53:08.097Z,22.90
2018-05-15T17:56:09.338Z,22.90
2018-05-15T17:59:10.582Z,22.90
2018-05-15T18:02:11.843Z,22.90
2018-05-15T18:05:13.121Z,22.90
2018-05-15T18:08:15.111Z,22.80
2018-05-15T18:11:16.334Z,22.80
2018-05-15T18:14:17.583Z,22.70
2018-05-15T18:17:19.571Z,22.80
2018-05-15T18:20:20.861Z,22.70
2018-05-15T18:23:22.873Z,22.70
2018-05-15T18:26:24.150Z,22.70
2018-05-15T18:29:25.419Z,22.70
2018-05-15T18:32:26.705Z,22.60
2018-05-15T18:35:27.957Z,22.70
2018-05-15T18:38:29.229Z,22.60
2018-05-15T18:41:30.496Z,22.60
2018-05-15T18:44:31.777Z,22.60
2018-05-15T18:47:33.017Z,22.60
2018-05-15T18:50:34.282Z,22.60
2018-05-15T18:53:35.528Z,22.60
2018-05-15T18:56:36.822Z,22.60
2018-05-15T18:59:38.072Z,22.40
2018-05-15T19:02:39.319Z,22.30
2018-05-15T19:05:40.558Z,22.20
2018-05-15T19:08:41.840Z,21.90
2018-05-15T19:11:43.092Z,21.70
2018-05-15T19:14:44.363Z,21.50
2018-05-15T19:17:45.623Z,21.40
2018-05-15T19:20:46.901Z,21.30
2018-05-15T19:23:48.150Z,21.20
2018-05-15T19:26:49.457Z,21.10
2018-05-15T19:29:50.702Z,21.00
2018-05-15T19:32:58.075Z,20.90
2018-05-15T19:36:05.348Z,20.80
2018-05-15T19:39:07.379Z,20.60
2018-05-15T19:42:08.692Z,20.60
2018-05-15T19:45:10.786Z,20.60
2018-05-15T19:48:12.017Z,20.60
2018-05-15T19:51:13.320Z,20.50
2018-05-15T19:54:14.596Z,20.50
2018-05-15T19:57:15.864Z,20.60
2018-05-15T20:00:17.149Z,20.50
2018-05-15T20:03:18.438Z,20.40
2018-05-15T20:06:19.731Z,20.30
2018-05-15T20:09:21.760Z,20.50
2018-05-15T20:12:23.032Z,20.50
2018-05-15T20:15:24.388Z,20.30
2018-05-15T20:18:25.653Z,20.40
2018-05-15T20:21:26.963Z,20.50
2018-05-15T20:24:28.977Z,20.30
2018-05-15T20:27:30.247Z,20.30
2018-05-15T20:30:31.545Z,20.20
2018-05-15T20:33:32.855Z,20.10
2018-05-15T20:36:34.106Z,20.20
2018-05-15T20:39:36.119Z,20.30
2018-05-15T20:42:37.397Z,20.20
2018-05-15T20:45:38.698Z,20.30
2018-05-15T20:48:40.709Z,20.30
2018-05-15T20:51:41.976Z,20.20
2018-05-15T20:54:43.230Z,20.30
2018-05-15T20:57:44.530Z,20.10
2018-05-15T21:00:45.812Z,20.10
2018-05-15T21:03:47.088Z,20.20
2018-05-15T21:06:48.351Z,20.20
2018-05-15T21:09:49.634Z,19.90
2018-05-15T21:12:51.624Z,20.10
2018-05-15T21:15:53.642Z,19.80
2018-05-15T21:18:54.915Z,19.80
2018-05-15T21:21:56.293Z,19.70
2018-05-15T21:24:58.213Z,19.60
2018-05-15T21:28:00.199Z,19.70
2018-05-15T21:31:01.480Z,19.70
2018-05-15T21:34:02.796Z,19.70
2018-05-15T21:37:04.104Z,19.70
2018-05-15T21:40:05.407Z,19.70
2018-05-15T21:43:06.668Z,19.70
2018-05-15T21:46:07.979Z,19.70
2018-05-15T21:49:10.025Z,19.80
2018-05-15T21:52:11.325Z,19.80
2018-05-15T21:55:12.590Z,19.90
2018-05-15T21:58:13.894Z,20.00
2018-05-15T22:01:15.182Z,19.80
2018-05-15T22:04:16.481Z,19.70
2018-05-15T22:07:17.754Z,19.60
2018-05-15T22:10:19.039Z,19.50
2018-05-15T22:13:38.814Z,19.50
2018-05-15T22:16:58.631Z,19.50
2018-05-15T22:20:18.364Z,19.60
2018-05-15T22:23:19.404Z,19.70
2018-05-15T22:26:20.685Z,19.80
2018-05-15T22:29:21.992Z,19.70
2018-05-15T22:32:23.282Z,19.70
2018-05-15T22:35:24.554Z,19.80
2018-05-15T22:38:25.816Z,19.80
2018-05-15T22:41:27.102Z,19.70
2018-05-15T22:44:28.388Z,19.60
2018-05-15T22:47:29.673Z,19.50
2018-05-15T22:50:31.700Z,19.30
2018-05-15T22:53:33.006Z,19.30
2018-05-15T22:56:35.020Z,19.40
2018-05-15T22:59:36.326Z,19.40
2018-05-15T23:02:37.587Z,19.50
2018-05-15T23:05:38.854Z,19.50
2018-05-15T23:08:40.142Z,19.20
2018-05-15T23:11:42.158Z,19.40
2018-05-15T23:14:43.433Z,19.40
2018-05-15T23:17:44.693Z,19.30
2018-05-15T23:20:45.963Z,19.40
2018-05-15T23:23:47.219Z,19.30
2018-05-15T23:26:48.499Z,19.40
2018-05-15T23:29:49.762Z,19.50
2018-05-15T23:32:51.019Z,19.60
2018-05-15T23:35:52.303Z,19.60
2018-05-15T23:38:53.568Z,19.50
2018-05-15T23:41:54.847Z,19.40
2018-05-15T23:44:56.084Z,19.30
2018-05-15T23:47:57.360Z,19.40
2018-05-15T23:50:58.649Z,19.30
2018-05-15T23:54:00.682Z,19.40
2018-05-15T23:57:01.958Z,19.30
